createdAt,value
2018-10-05T00:02:12.216Z,15.30
2018-10-05T00:04:40.478Z,15.30
2018-10-05T00:07:08.738Z,15.30
2018-10-05T00:09:37.033Z,15.30
2018-10-05T00:12:05.556Z,15.20
2018-10-05T00:14:33.795Z,15.10
2018-10-05T00:17:02.072Z,14.90
2018-10-05T00:19:30.303Z,14.80
2018-10-05T00:21:58.576Z,14.60
2018-10-05T00:24:26.812Z,14.50
2018-10-05T00:26:55.047Z,14.40
2018-10-05T00:29:23.300Z,14.30
2018-10-05T00:31:51.556Z,14.20
2018-10-05T00:34:19.790Z,14.20
2018-10-05T00:36:48.021Z,14.10
2018-10-05T00:39:16.289Z,14.00
2018-10-05T00:41:44.528Z,14.00
2018-10-05T00:44:12.778Z,13.90
2018-10-05T00:46:41.672Z,13.80
2018-10-05T00:49:09.892Z,13.70
2018-10-05T00:51:38.095Z,13.70
2018-10-05T00:54:06.480Z,13.60
2018-10-05T00:56:34.746Z,13.60
2018-10-05T00:59:02.990Z,13.50
2018-10-05T01:01:31.240Z,13.50
2018-10-05T01:03:59.692Z,13.40
2018-10-05T01:06:27.968Z,13.40
2018-10-05T01:08:56.275Z,13.40
2018-10-05T01:11:24.593Z,13.30
2018-10-05T01:13:52.915Z,13.30
2018-10-05T01:16:21.218Z,13.30
2018-10-05T01:18:49.439Z,13.20
2018-10-05T01:21:17.699Z,13.20
2018-10-05T01:23:45.941Z,13.20
2018-10-05T01:26:14.185Z,13.20
2018-10-05T01:28:42.449Z,13.20
2018-10-05T01:31:10.684Z,13.10
2018-10-05T01:33:38.896Z,13.20
2018-10-05T01:36:07.162Z,13.10
2018-10-05T01:38:36.049Z,13.10
2018-10-05T01:41:04.288Z,13.30
2018-10-05T01:43:32.988Z,13.30
2018-10-05T01:46:01.211Z,13.40
2018-10-05T01:48:30.203Z,13.50
2018-10-05T01:50:58.459Z,13.60
2018-10-05T01:53:26.720Z,13.60
2018-10-05T01:55:54.984Z,13.60
2018-10-05T01:58:23.225Z,13.60
2018-10-05T02:00:51.435Z,13.50
2018-10-05T02:03:19.680Z,13.40
2018-10-05T02:05:47.944Z,13.30
2018-10-05T02:08:16.184Z,13.20
2018-10-05T02:10:44.396Z,13.20
2018-10-05T02:13:13.664Z,13.10
2018-10-05T02:15:41.900Z,13.00
2018-10-05T02:18:10.164Z,13.00
2018-10-05T02:20:38.429Z,13.00
2018-10-05T02:23:06.681Z,12.90
2018-10-05T02:25:34.884Z,12.90
2018-10-05T02:28:03.137Z,12.80
2018-10-05T02:30:31.381Z,12.80
2018-10-05T02:32:59.634Z,12.80
2018-10-05T02:35:27.950Z,12.70
2018-10-05T02:37:56.247Z,12.70
2018-10-05T02:40:24.525Z,12.70
2018-10-05T02:42:52.760Z,12.70
2018-10-05T02:45:21.029Z,12.70
2018-10-05T02:47:49.291Z,12.60
2018-10-05T02:50:17.567Z,12.60
2018-10-05T02:52:46.077Z,12.60
2018-10-05T02:55:14.337Z,12.50
2018-10-05T02:57:42.561Z,12.50
2018-10-05T03:00:22.211Z,12.50
2018-10-05T03:02:50.468Z,12.50
2018-10-05T03:05:18.715Z,12.50
2018-10-05T03:07:46.923Z,12.50
2018-10-05T03:10:15.199Z,12.50
2018-10-05T03:12:43.432Z,12.50
2018-10-05T03:15:11.676Z,12.50
2018-10-05T03:17:39.933Z,12.50
2018-10-05T03:20:08.172Z,12.50
2018-10-05T03:22:36.432Z,12.50
2018-10-05T03:25:04.703Z,12.60
2018-10-05T03:27:32.928Z,12.60
2018-10-05T03:30:01.208Z,12.60
2018-10-05T03:32:29.486Z,12.70
2018-10-05T03:34:57.719Z,12.70
2018-10-05T03:37:25.991Z,12.70
2018-10-05T03:39:54.288Z,12.80
2018-10-05T03:42:22.544Z,12.80
2018-10-05T03:44:50.821Z,12.80
2018-10-05T03:47:19.047Z,12.70
2018-10-05T03:49:47.317Z,12.60
2018-10-05T03:52:15.532Z,12.50
2018-10-05T03:54:43.791Z,12.40
2018-10-05T03:57:12.116Z,12.30
2018-10-05T03:59:40.379Z,12.20
2018-10-05T04:02:08.607Z,12.20
2018-10-05T04:04:36.848Z,12.10
2018-10-05T04:07:05.112Z,12.10
2018-10-05T04:09:33.368Z,12.00
2018-10-05T04:12:01.668Z,12.00
2018-10-05T04:14:29.905Z,12.00
2018-10-05T04:16:58.104Z,12.00
2018-10-05T04:19:26.434Z,11.90
2018-10-05T04:21:54.734Z,11.90
2018-10-05T04:24:24.154Z,11.90
2018-10-05T04:26:52.399Z,11.80
2018-10-05T04:29:20.618Z,11.80
2018-10-05T04:31:48.896Z,11.80
2018-10-05T04:34:17.126Z,11.80
2018-10-05T04:36:45.380Z,11.80
2018-10-05T04:39:13.660Z,11.70
2018-10-05T04:41:41.926Z,11.70
2018-10-05T04:44:10.151Z,11.70
2018-10-05T04:46:38.405Z,11.70
2018-10-05T04:49:06.698Z,11.70
2018-10-05T04:51:34.972Z,11.70
2018-10-05T04:54:03.264Z,11.70
2018-10-05T04:56:31.738Z,11.70
2018-10-05T04:59:00.024Z,11.70
2018-10-05T05:01:28.261Z,11.70
2018-10-05T05:03:56.592Z,11.70
2018-10-05T05:06:24.864Z,11.60
2018-10-05T05:08:53.077Z,11.60
2018-10-05T05:11:21.357Z,11.60
2018-10-05T05:13:49.584Z,11.70
2018-10-05T05:16:17.857Z,11.70
2018-10-05T05:18:46.085Z,11.80
2018-10-05T05:21:14.428Z,11.90
2018-10-05T05:23:42.669Z,12.00
2018-10-05T05:26:10.904Z,12.00
2018-10-05T05:28:39.126Z,12.10
2018-10-05T05:31:07.357Z,12.20
2018-10-05T05:33:35.675Z,12.30
2018-10-05T05:36:03.928Z,12.30
2018-10-05T05:38:32.391Z,12.30
2018-10-05T05:41:00.662Z,12.20
2018-10-05T05:43:29.720Z,12.20
2018-10-05T05:45:57.956Z,12.30
2018-10-05T05:48:26.231Z,12.30
2018-10-05T05:50:54.491Z,12.30
2018-10-05T05:53:22.737Z,12.30
2018-10-05T05:55:50.966Z,12.30
2018-10-05T05:58:19.220Z,12.40
2018-10-05T06:00:47.825Z,12.40
2018-10-05T06:03:16.063Z,12.50
2018-10-05T06:05:44.341Z,12.50
2018-10-05T06:08:13.548Z,12.50
2018-10-05T06:10:41.761Z,12.50
2018-10-05T06:13:10.081Z,12.50
2018-10-05T06:15:38.325Z,12.50
2018-10-05T06:18:06.697Z,12.60
2018-10-05T06:20:35.016Z,12.90
2018-10-05T06:23:03.312Z,13.40
2018-10-05T06:25:31.747Z,13.80
2018-10-05T06:28:00.140Z,14.20
2018-10-05T06:30:28.418Z,14.60
2018-10-05T06:32:56.724Z,14.80
2018-10-05T06:35:24.996Z,15.10
2018-10-05T06:37:53.238Z,15.20
2018-10-05T06:40:21.492Z,14.90
2018-10-05T06:42:49.717Z,14.70
2018-10-05T06:45:17.951Z,14.50
2018-10-05T06:47:46.165Z,14.40
2018-10-05T06:50:14.433Z,14.40
2018-10-05T06:52:42.729Z,14.20
2018-10-05T06:55:10.936Z,14.00
2018-10-05T06:57:39.339Z,13.90
2018-10-05T07:00:07.756Z,13.90
2018-10-05T07:02:36.013Z,13.90
2018-10-05T07:05:04.312Z,13.80
2018-10-05T07:07:32.646Z,13.70
2018-10-05T07:10:00.851Z,13.70
2018-10-05T07:12:29.136Z,13.70
2018-10-05T07:14:57.418Z,13.70
2018-10-05T07:17:25.705Z,13.70
2018-10-05T07:19:54.097Z,13.80
2018-10-05T07:22:22.382Z,13.80
2018-10-05T07:24:50.576Z,13.90
2018-10-05T07:27:18.864Z,13.90
2018-10-05T07:29:47.304Z,13.90
2018-10-05T07:32:15.555Z,13.90
2018-10-05T07:34:43.923Z,13.90
2018-10-05T07:37:12.206Z,14.00
2018-10-05T07:39:40.437Z,14.10
2018-10-05T07:42:08.716Z,14.20
2018-10-05T07:44:36.986Z,14.30
2018-10-05T07:47:05.259Z,14.30
2018-10-05T07:49:33.511Z,14.40
2018-10-05T07:52:01.784Z,14.50
2018-10-05T07:54:30.080Z,14.60
2018-10-05T07:56:58.374Z,14.60
2018-10-05T07:59:26.684Z,14.60
2018-10-05T08:01:55.100Z,14.60
2018-10-05T08:04:23.386Z,14.70
2018-10-05T08:06:51.663Z,14.80
2018-10-05T08:09:19.976Z,15.00
2018-10-05T08:11:48.214Z,15.10
2018-10-05T08:14:16.453Z,15.10
2018-10-05T08:16:44.728Z,15.10
2018-10-05T08:19:12.988Z,15.20
2018-10-05T08:21:41.672Z,15.30
2018-10-05T08:24:09.833Z,15.30
2018-10-05T08:26:38.113Z,15.40
2018-10-05T08:29:06.374Z,15.50
2018-10-05T08:31:34.734Z,15.50
2018-10-05T08:34:03.055Z,15.60
2018-10-05T08:36:31.285Z,15.70
2018-10-05T08:38:59.554Z,15.80
2018-10-05T08:41:27.857Z,15.90
2018-10-05T08:43:56.165Z,16.00
2018-10-05T08:46:24.472Z,16.00
2018-10-05T08:48:52.743Z,16.10
2018-10-05T08:51:21.006Z,16.10
2018-10-05T08:53:49.268Z,16.10
2018-10-05T08:56:17.526Z,16.20
2018-10-05T08:58:45.799Z,16.30
2018-10-05T09:01:14.031Z,16.30
2018-10-05T09:03:42.268Z,16.40
2018-10-05T09:06:10.495Z,16.50
2018-10-05T09:08:39.019Z,16.60
2018-10-05T09:11:07.375Z,16.70
2018-10-05T09:13:35.598Z,16.90
2018-10-05T09:16:03.865Z,17.00
2018-10-05T09:18:32.160Z,17.00
2018-10-05T09:21:00.445Z,17.10
2018-10-05T09:23:28.770Z,17.00
2018-10-05T09:25:57.291Z,17.10
2018-10-05T09:28:25.602Z,17.20
2018-10-05T09:30:53.948Z,17.30
2018-10-05T09:33:22.277Z,17.40
2018-10-05T09:35:50.516Z,17.50
2018-10-05T09:38:19.008Z,17.60
2018-10-05T09:40:47.272Z,17.70
2018-10-05T09:43:15.530Z,17.80
2018-10-05T09:45:43.796Z,17.80
2018-10-05T09:48:12.096Z,17.90
2018-10-05T09:50:40.755Z,18.00
2018-10-05T09:53:09.037Z,18.00
2018-10-05T09:55:37.286Z,18.10
2018-10-05T09:58:05.609Z,18.20
2018-10-05T10:00:39.332Z,18.20
2018-10-05T10:03:39.566Z,18.30
2018-10-05T10:06:08.477Z,18.40
2018-10-05T10:08:36.705Z,18.50
2018-10-05T10:11:04.968Z,18.60
2018-10-05T10:13:33.303Z,18.70
2018-10-05T10:16:01.572Z,18.70
2018-10-05T10:18:29.800Z,18.70
2018-10-05T10:20:58.154Z,18.80
2018-10-05T10:23:27.089Z,18.80
2018-10-05T10:25:55.400Z,18.90
2018-10-05T10:28:23.796Z,18.90
2018-10-05T10:30:52.075Z,19.00
2018-10-05T10:33:20.316Z,19.10
2018-10-05T10:35:48.565Z,19.20
2018-10-05T10:38:16.813Z,19.30
2018-10-05T10:40:45.080Z,19.40
2018-10-05T10:43:13.403Z,19.50
2018-10-05T10:45:41.850Z,19.50
2018-10-05T10:48:10.218Z,19.60
2018-10-05T10:50:38.580Z,19.60
2018-10-05T10:53:06.902Z,19.70
2018-10-05T10:55:35.265Z,19.60
2018-10-05T10:58:03.578Z,19.50
2018-10-05T11:00:31.892Z,19.60
2018-10-05T11:03:00.195Z,19.70
2018-10-05T11:05:28.731Z,19.70
2018-10-05T11:07:57.119Z,19.70
2018-10-05T11:10:25.402Z,19.80
2018-10-05T11:12:53.664Z,19.90
2018-10-05T11:15:22.127Z,20.00
2018-10-05T11:17:50.489Z,20.10
2018-10-05T11:20:18.776Z,20.10
2018-10-05T11:22:47.012Z,20.20
2018-10-05T11:25:15.290Z,20.20
2018-10-05T11:27:43.581Z,20.20
2018-10-05T11:30:11.801Z,20.30
2018-10-05T11:32:40.033Z,20.30
2018-10-05T11:35:08.339Z,20.20
2018-10-05T11:37:36.601Z,20.20
2018-10-05T11:40:05.771Z,20.30
2018-10-05T11:42:34.793Z,20.40
2018-10-05T11:45:03.297Z,20.50
2018-10-05T11:47:31.741Z,20.50
2018-10-05T11:50:00.149Z,20.50
2018-10-05T11:52:28.706Z,20.60
2018-10-05T11:54:56.969Z,20.60
2018-10-05T11:57:25.237Z,20.60
2018-10-05T11:59:53.552Z,20.60
2018-10-05T12:02:21.909Z,20.70
2018-10-05T12:04:50.141Z,20.70
2018-10-05T12:07:18.408Z,20.80
2018-10-05T12:09:46.648Z,20.80
2018-10-05T12:12:14.901Z,20.70
2018-10-05T12:14:43.139Z,20.70
2018-10-05T12:17:11.384Z,20.70
2018-10-05T12:19:39.649Z,20.80
2018-10-05T12:22:07.881Z,20.70
2018-10-05T12:24:36.157Z,20.80
2018-10-05T12:27:04.428Z,20.80
2018-10-05T12:29:32.712Z,20.90
2018-10-05T12:32:01.039Z,20.80
2018-10-05T12:34:29.390Z,20.90
2018-10-05T12:36:57.698Z,20.80
2018-10-05T12:39:25.962Z,20.80
2018-10-05T12:41:54.273Z,20.90
2018-10-05T12:44:22.463Z,20.90
2018-10-05T12:46:50.672Z,21.00
2018-10-05T12:49:18.930Z,21.00
2018-10-05T12:51:47.177Z,20.90
2018-10-05T12:54:15.417Z,21.00
2018-10-05T12:56:43.928Z,21.00
2018-10-05T12:59:12.255Z,21.10
2018-10-05T13:01:40.693Z,21.20
2018-10-05T13:04:09.168Z,21.20
2018-10-05T13:06:37.464Z,21.20
2018-10-05T13:09:07.443Z,21.20
2018-10-05T13:11:35.716Z,21.20
2018-10-05T13:14:04.406Z,21.20
2018-10-05T13:16:33.120Z,21.20
2018-10-05T13:19:01.544Z,21.20
2018-10-05T13:21:29.759Z,21.20
2018-10-05T13:23:57.991Z,21.10
2018-10-05T13:26:27.004Z,21.20
2018-10-05T13:28:55.212Z,21.10
2018-10-05T13:31:23.468Z,21.20
2018-10-05T13:33:51.867Z,21.20
2018-10-05T13:36:20.080Z,21.20
2018-10-05T13:38:48.603Z,21.20
2018-10-05T13:41:16.912Z,21.10
2018-10-05T13:43:45.128Z,21.10
2018-10-05T13:46:13.473Z,21.10
2018-10-05T13:48:41.749Z,21.10
2018-10-05T13:51:09.973Z,21.10
2018-10-05T13:53:38.201Z,21.10
2018-10-05T13:56:06.484Z,21.10
2018-10-05T13:58:34.733Z,21.10
2018-10-05T14:01:03.095Z,21.10
2018-10-05T14:03:31.404Z,21.00
2018-10-05T14:05:59.736Z,21.00
2018-10-05T14:08:28.324Z,21.00
2018-10-05T14:10:56.599Z,21.10
2018-10-05T14:13:25.787Z,21.10
2018-10-05T14:15:54.032Z,21.10
2018-10-05T14:18:22.268Z,21.10
2018-10-05T14:20:50.493Z,21.10
2018-10-05T14:23:18.761Z,21.00
2018-10-05T14:25:47.031Z,21.00
2018-10-05T14:28:15.272Z,21.10
2018-10-05T14:30:44.293Z,21.00
2018-10-05T14:33:12.792Z,21.00
2018-10-05T14:35:41.051Z,21.00
2018-10-05T14:38:09.343Z,20.90
2018-10-05T14:40:37.917Z,20.90
2018-10-05T14:43:06.165Z,20.90
2018-10-05T14:45:34.459Z,20.80
2018-10-05T14:48:02.733Z,20.80
2018-10-05T14:50:31.814Z,20.80
2018-10-05T14:53:00.105Z,20.80
2018-10-05T14:55:28.515Z,20.70
2018-10-05T14:57:56.800Z,20.70
2018-10-05T15:00:25.043Z,20.70
2018-10-05T15:02:53.293Z,20.70
2018-10-05T15:05:21.576Z,20.70
2018-10-05T15:07:49.873Z,20.70
2018-10-05T15:10:18.156Z,20.70
2018-10-05T15:12:46.453Z,20.60
2018-10-05T15:15:14.673Z,20.60
2018-10-05T15:17:42.946Z,20.60
2018-10-05T15:20:11.208Z,20.50
2018-10-05T15:22:39.464Z,20.50
2018-10-05T15:25:07.713Z,20.50
2018-10-05T15:27:35.972Z,20.40
2018-10-05T15:30:04.403Z,20.40
2018-10-05T15:32:32.715Z,20.40
2018-10-05T15:35:01.043Z,20.30
2018-10-05T15:37:29.426Z,20.30
2018-10-05T15:39:57.858Z,20.20
2018-10-05T15:42:26.445Z,20.20
2018-10-05T15:44:54.685Z,20.10
2018-10-05T15:47:22.989Z,20.10
2018-10-05T15:49:51.252Z,20.00
2018-10-05T15:52:19.960Z,20.00
2018-10-05T15:54:48.218Z,19.90
2018-10-05T15:57:16.466Z,19.80
2018-10-05T15:59:44.716Z,19.70
2018-10-05T16:02:13.036Z,19.70
2018-10-05T16:04:41.325Z,19.60
2018-10-05T16:07:09.672Z,19.50
2018-10-05T16:09:37.998Z,19.40
2018-10-05T16:12:07.005Z,19.30
2018-10-05T16:14:35.279Z,19.20
2018-10-05T16:17:04.175Z,19.10
2018-10-05T16:19:32.436Z,19.00
2018-10-05T16:22:00.709Z,18.80
2018-10-05T16:24:34.416Z,18.70
2018-10-05T16:27:02.588Z,18.60
2018-10-05T16:29:30.853Z,18.50
2018-10-05T16:31:59.151Z,18.40
2018-10-05T16:34:27.424Z,18.30
2018-10-05T16:36:55.643Z,18.30
2018-10-05T16:39:23.924Z,18.20
2018-10-05T16:41:52.190Z,18.10
2018-10-05T16:44:20.437Z,18.00
2018-10-05T16:46:48.692Z,17.90
2018-10-05T16:49:16.956Z,17.80
2018-10-05T16:51:45.223Z,17.70
2018-10-05T16:54:13.500Z,17.60
2018-10-05T16:56:41.744Z,17.50
2018-10-05T16:59:10.016Z,17.40
2018-10-05T17:01:38.682Z,17.40
2018-10-05T17:04:07.228Z,17.30
2018-10-05T17:06:35.484Z,17.10
2018-10-05T17:09:08.104Z,17.10
2018-10-05T17:11:37.941Z,17.00
2018-10-05T17:14:06.200Z,16.90
2018-10-05T17:16:34.503Z,16.90
2018-10-05T17:19:03.131Z,16.80
2018-10-05T17:21:32.458Z,16.80
2018-10-05T17:28:53.309Z,16.70
2018-10-05T17:31:21.626Z,16.50
2018-10-05T17:33:49.894Z,16.40
2018-10-05T17:36:18.180Z,16.30
2018-10-05T17:38:46.464Z,16.30
2018-10-05T17:41:14.721Z,16.20
2018-10-05T17:43:43.037Z,16.20
2018-10-05T17:46:11.334Z,16.10
2018-10-05T17:48:39.614Z,16.10
2018-10-05T17:51:08.460Z,16.00
2018-10-05T17:53:36.879Z,16.00
2018-10-05T17:56:05.734Z,16.00
2018-10-05T17:58:34.161Z,15.90
2018-10-05T18:01:03.406Z,15.90
2018-10-05T18:03:31.715Z,15.90
2018-10-05T18:06:00.074Z,15.80
2018-10-05T18:08:28.599Z,15.80
2018-10-05T18:10:56.797Z,15.70
2018-10-05T18:13:25.101Z,15.70
2018-10-05T18:15:53.416Z,15.60
2018-10-05T18:18:21.825Z,15.60
2018-10-05T18:20:50.136Z,15.50
2018-10-05T18:23:18.787Z,15.50
2018-10-05T18:25:47.099Z,15.50
2018-10-05T18:28:15.417Z,15.40
2018-10-05T18:30:44.652Z,15.40
2018-10-05T18:33:14.072Z,15.40
2018-10-05T18:35:42.724Z,15.30
2018-10-05T18:38:11.148Z,15.30
2018-10-05T18:40:39.426Z,15.20
2018-10-05T18:43:07.796Z,15.20
2018-10-05T18:45:36.161Z,15.20
2018-10-05T18:48:04.468Z,15.10
2018-10-05T18:50:32.809Z,15.10
2018-10-05T18:53:01.509Z,15.00
2018-10-05T18:55:29.976Z,15.00
2018-10-05T18:57:58.981Z,15.00
2018-10-05T19:00:27.318Z,14.90
2018-10-05T19:02:55.667Z,14.90
2018-10-05T19:05:24.190Z,14.90
2018-10-05T19:07:53.006Z,14.80
2018-10-05T19:10:21.312Z,14.80
2018-10-05T19:12:49.675Z,14.70
2018-10-05T19:15:17.933Z,14.70
2018-10-05T19:17:47.392Z,14.70
2018-10-05T19:20:16.066Z,14.70
2018-10-05T19:22:44.371Z,14.60
2018-10-05T19:25:12.681Z,14.60
2018-10-05T19:27:41.396Z,14.50
2018-10-05T19:30:10.636Z,14.50
2018-10-05T19:32:38.980Z,14.50
2018-10-05T19:35:07.372Z,14.50
2018-10-05T19:37:37.353Z,14.50
2018-10-05T19:40:06.370Z,14.40
2018-10-05T19:42:34.804Z,14.40
2018-10-05T19:45:03.584Z,14.30
2018-10-05T19:47:32.898Z,14.30
2018-10-05T19:50:01.388Z,14.20
2018-10-05T19:52:30.592Z,14.20
2018-10-05T19:55:00.120Z,14.20
2018-10-05T19:57:28.479Z,14.20
2018-10-05T19:59:56.804Z,14.20
2018-10-05T20:02:25.350Z,14.10
2018-10-05T20:04:54.410Z,14.10
2018-10-05T20:07:23.373Z,14.10
2018-10-05T20:09:51.680Z,14.10
2018-10-05T20:12:20.464Z,14.10
2018-10-05T20:14:48.787Z,14.00
2018-10-05T20:17:17.288Z,14.00
2018-10-05T20:19:45.684Z,14.00
2018-10-05T20:22:14.523Z,14.00
2018-10-05T20:24:42.840Z,14.00
2018-10-05T20:27:11.497Z,13.90
2018-10-05T20:29:40.388Z,13.90
2018-10-05T20:32:08.789Z,13.90
2018-10-05T20:34:37.145Z,13.90
2018-10-05T20:37:05.674Z,13.90
2018-10-05T20:39:34.277Z,13.90
2018-10-05T20:42:02.884Z,13.90
2018-10-05T20:44:32.081Z,13.80
2018-10-05T20:47:00.358Z,13.80
2018-10-05T20:49:28.692Z,13.80
2018-10-05T20:51:56.992Z,13.80
2018-10-05T20:54:25.285Z,13.80
2018-10-05T20:56:53.640Z,13.70
2018-10-05T20:59:21.946Z,13.70
2018-10-05T21:01:50.287Z,13.70
2018-10-05T21:04:19.245Z,13.60
2018-10-05T21:06:47.629Z,13.60
2018-10-05T21:09:15.940Z,13.60
2018-10-05T21:11:44.283Z,13.50
2018-10-05T21:14:12.640Z,13.50
2018-10-05T21:16:40.949Z,13.50
2018-10-05T21:19:09.278Z,13.40
2018-10-05T21:21:37.542Z,13.40
2018-10-05T21:24:05.809Z,13.30
2018-10-05T21:26:35.028Z,13.30
2018-10-05T21:29:03.330Z,13.30
2018-10-05T21:31:31.612Z,13.30
2018-10-05T21:33:59.921Z,13.30
2018-10-05T21:36:28.196Z,13.20
2018-10-05T21:38:56.464Z,13.20
2018-10-05T21:41:24.774Z,13.20
2018-10-05T21:43:53.084Z,13.10
2018-10-05T21:46:21.368Z,13.10
2018-10-05T21:48:49.701Z,13.10
2018-10-05T21:51:18.077Z,13.10
2018-10-05T21:53:46.350Z,13.00
2018-10-05T21:56:14.834Z,13.00
2018-10-05T21:58:43.076Z,12.90
2018-10-05T22:01:11.309Z,12.90
2018-10-05T22:03:43.839Z,12.80
2018-10-05T22:06:12.084Z,12.80
2018-10-05T22:08:40.324Z,12.80
2018-10-05T22:11:08.593Z,12.80
2018-10-05T22:13:36.873Z,12.70
2018-10-05T22:16:05.108Z,12.70
2018-10-05T22:18:33.383Z,12.60
2018-10-05T22:21:01.628Z,12.60
2018-10-05T22:23:29.897Z,12.60
2018-10-05T22:25:58.184Z,12.60
2018-10-05T22:28:26.437Z,12.60
2018-10-05T22:30:54.704Z,12.50
2018-10-05T22:33:23.011Z,12.50
2018-10-05T22:35:51.267Z,12.40
2018-10-05T22:38:19.568Z,12.40
2018-10-05T22:40:48.016Z,12.30
2018-10-05T22:43:16.296Z,12.30
2018-10-05T22:45:44.855Z,12.20
2018-10-05T22:48:13.148Z,12.20
2018-10-05T22:50:41.371Z,12.10
2018-10-05T22:53:09.654Z,12.10
2018-10-05T22:55:37.904Z,12.10
2018-10-05T22:58:06.364Z,12.10
2018-10-05T23:00:34.642Z,12.10
2018-10-05T23:03:02.981Z,12.00
2018-10-05T23:05:31.466Z,12.00
2018-10-05T23:08:00.176Z,12.00
2018-10-05T23:10:28.536Z,12.00
2018-10-05T23:12:56.788Z,12.00
2018-10-05T23:15:25.037Z,11.90
2018-10-05T23:17:53.309Z,11.90
2018-10-05T23:20:21.560Z,11.90
2018-10-05T23:22:49.828Z,11.80
2018-10-05T23:25:18.424Z,11.80
2018-10-05T23:27:46.744Z,11.80
2018-10-05T23:30:15.009Z,11.70
2018-10-05T23:32:43.288Z,11.70
2018-10-05T23:35:11.536Z,11.70
2018-10-05T23:37:39.777Z,11.70
2018-10-05T23:40:08.008Z,11.60
2018-10-05T23:42:36.296Z,11.60
2018-10-05T23:45:04.849Z,11.60
2018-10-05T23:47:33.319Z,11.60
2018-10-05T23:50:01.578Z,11.50
2018-10-05T23:52:35.045Z,11.50
2018-10-05T23:55:04.149Z,11.50
2018-10-05T23:57:32.682Z,11.50
